sensor_id;sensor_type;location;lat;lon;timestamp;temperature;humidity
67502;SHT30;54349;52.528;19.760;2023-04-23T00:00:12;24.45;38.05
67502;SHT30;54349;52.528;19.760;2023-04-23T00:03:08;24.44;37.89
67502;SHT30;54349;52.528;19.760;2023-04-23T00:05:40;24.41;37.76
67502;SHT30;54349;52.528;19.760;2023-04-23T00:08:11;24.38;37.65
67502;SHT30;54349;52.528;19.760;2023-04-23T00:10:40;24.36;37.60
67502;SHT30;54349;52.528;19.760;2023-04-23T00:13:08;24.33;37.48
67502;SHT30;54349;52.528;19.760;2023-04-23T00:15:37;24.31;37.36
67502;SHT30;54349;52.528;19.760;2023-04-23T00:18:06;24.28;37.30
67502;SHT30;54349;52.528;19.760;2023-04-23T00:20:34;24.26;37.21
67502;SHT30;54349;52.528;19.760;2023-04-23T00:23:03;24.24;37.16
67502;SHT30;54349;52.528;19.760;2023-04-23T00:25:31;24.20;37.09
67502;SHT30;54349;52.528;19.760;2023-04-23T00:27:59;24.18;37.01
67502;SHT30;54349;52.528;19.760;2023-04-23T00:30:27;24.15;36.91
67502;SHT30;54349;52.528;19.760;2023-04-23T00:32:55;24.11;36.91
67502;SHT30;54349;52.528;19.760;2023-04-23T00:35:25;24.10;36.85
67502;SHT30;54349;52.528;19.760;2023-04-23T00:37:53;24.07;36.78
67502;SHT30;54349;52.528;19.760;2023-04-23T00:40:22;24.05;36.74
67502;SHT30;54349;52.528;19.760;2023-04-23T00:42:50;24.02;36.69
67502;SHT30;54349;52.528;19.760;2023-04-23T00:45:20;24.00;36.66
67502;SHT30;54349;52.528;19.760;2023-04-23T00:47:49;23.97;36.59
67502;SHT30;54349;52.528;19.760;2023-04-23T00:50:17;23.95;36.52
67502;SHT30;54349;52.528;19.760;2023-04-23T00:52:48;23.92;36.51
67502;SHT30;54349;52.528;19.760;2023-04-23T00:55:16;23.90;36.51
67502;SHT30;54349;52.528;19.760;2023-04-23T00:57:47;23.87;36.44
67502;SHT30;54349;52.528;19.760;2023-04-23T01:00:16;23.85;36.41
67502;SHT30;54349;52.528;19.760;2023-04-23T01:02:45;23.82;36.41
67502;SHT30;54349;52.528;19.760;2023-04-23T01:05:16;23.81;36.34
67502;SHT30;54349;52.528;19.760;2023-04-23T01:07:46;23.78;36.34
67502;SHT30;54349;52.528;19.760;2023-04-23T01:10:15;23.76;36.33
67502;SHT30;54349;52.528;19.760;2023-04-23T01:12:44;23.74;36.29
67502;SHT30;54349;52.528;19.760;2023-04-23T01:15:15;23.72;36.22
67502;SHT30;54349;52.528;19.760;2023-04-23T01:17:44;23.70;36.22
67502;SHT30;54349;52.528;19.760;2023-04-23T01:20:12;23.67;36.21
67502;SHT30;54349;52.528;19.760;2023-04-23T01:22:40;23.65;36.16
67502;SHT30;54349;52.528;19.760;2023-04-23T01:25:08;23.64;36.17
67502;SHT30;54349;52.528;19.760;2023-04-23T01:27:37;23.62;36.19
67502;SHT30;54349;52.528;19.760;2023-04-23T01:30:05;23.59;36.13
67502;SHT30;54349;52.528;19.760;2023-04-23T01:32:35;23.57;36.11
67502;SHT30;54349;52.528;19.760;2023-04-23T01:35:07;23.55;36.12
67502;SHT30;54349;52.528;19.760;2023-04-23T01:37:36;23.54;36.13
67502;SHT30;54349;52.528;19.760;2023-04-23T01:40:05;23.51;36.14
67502;SHT30;54349;52.528;19.760;2023-04-23T01:42:35;23.49;36.10
67502;SHT30;54349;52.528;19.760;2023-04-23T01:45:03;23.48;36.09
67502;SHT30;54349;52.528;19.760;2023-04-23T01:47:34;23.45;36.11
67502;SHT30;54349;52.528;19.760;2023-04-23T01:50:03;23.44;36.11
67502;SHT30;54349;52.528;19.760;2023-04-23T01:52:41;23.42;36.10
67502;SHT30;54349;52.528;19.760;2023-04-23T01:55:11;23.40;36.08
67502;SHT30;54349;52.528;19.760;2023-04-23T01:57:40;23.39;36.08
67502;SHT30;54349;52.528;19.760;2023-04-23T02:00:09;23.36;36.03
67502;SHT30;54349;52.528;19.760;2023-04-23T02:02:40;23.35;36.02
67502;SHT30;54349;52.528;19.760;2023-04-23T02:05:12;23.33;36.03
67502;SHT30;54349;52.528;19.760;2023-04-23T02:07:46;23.32;36.02
67502;SHT30;54349;52.528;19.760;2023-04-23T02:10:17;23.30;36.02
67502;SHT30;54349;52.528;19.760;2023-04-23T02:12:47;23.28;36.02
67502;SHT30;54349;52.528;19.760;2023-04-23T02:15:15;23.26;36.01
67502;SHT30;54349;52.528;19.760;2023-04-23T02:17:44;23.25;36.01
67502;SHT30;54349;52.528;19.760;2023-04-23T02:20:12;23.24;35.99
67502;SHT30;54349;52.528;19.760;2023-04-23T02:22:41;23.22;36.00
67502;SHT30;54349;52.528;19.760;2023-04-23T02:25:10;23.20;36.00
67502;SHT30;54349;52.528;19.760;2023-04-23T02:27:38;23.18;35.98
67502;SHT30;54349;52.528;19.760;2023-04-23T02:30:06;23.17;35.96
67502;SHT30;54349;52.528;19.760;2023-04-23T02:32:37;23.16;35.98
67502;SHT30;54349;52.528;19.760;2023-04-23T02:35:07;23.15;36.00
67502;SHT30;54349;52.528;19.760;2023-04-23T02:37:37;23.12;35.96
67502;SHT30;54349;52.528;19.760;2023-04-23T02:40:06;23.11;36.01
67502;SHT30;54349;52.528;19.760;2023-04-23T02:42:36;23.09;35.94
67502;SHT30;54349;52.528;19.760;2023-04-23T02:45:06;23.08;35.96
67502;SHT30;54349;52.528;19.760;2023-04-23T02:47:35;23.06;35.96
67502;SHT30;54349;52.528;19.760;2023-04-23T02:50:04;23.05;35.95
67502;SHT30;54349;52.528;19.760;2023-04-23T02:52:33;23.04;35.96
67502;SHT30;54349;52.528;19.760;2023-04-23T02:55:01;23.02;35.96
67502;SHT30;54349;52.528;19.760;2023-04-23T02:57:30;23.01;35.90
67502;SHT30;54349;52.528;19.760;2023-04-23T02:59:58;22.99;35.91
67502;SHT30;54349;52.528;19.760;2023-04-23T03:02:32;22.98;35.96
67502;SHT30;54349;52.528;19.760;2023-04-23T03:05:01;22.96;35.92
67502;SHT30;54349;52.528;19.760;2023-04-23T03:07:29;22.95;35.92
67502;SHT30;54349;52.528;19.760;2023-04-23T03:09:59;22.94;35.93
67502;SHT30;54349;52.528;19.760;2023-04-23T03:12:27;22.92;35.90
67502;SHT30;54349;52.528;19.760;2023-04-23T03:14:55;22.92;35.90
67502;SHT30;54349;52.528;19.760;2023-04-23T03:17:24;22.90;35.86
67502;SHT30;54349;52.528;19.760;2023-04-23T03:19:52;22.89;35.84
67502;SHT30;54349;52.528;19.760;2023-04-23T03:22:20;22.87;35.84
67502;SHT30;54349;52.528;19.760;2023-04-23T03:24:49;22.86;35.82
67502;SHT30;54349;52.528;19.760;2023-04-23T03:27:17;22.85;35.83
67502;SHT30;54349;52.528;19.760;2023-04-23T03:29:45;22.84;35.86
67502;SHT30;54349;52.528;19.760;2023-04-23T03:32:13;22.83;35.82
67502;SHT30;54349;52.528;19.760;2023-04-23T03:34:42;22.82;35.83
67502;SHT30;54349;52.528;19.760;2023-04-23T03:37:11;22.80;35.81
67502;SHT30;54349;52.528;19.760;2023-04-23T03:39:40;22.79;35.80
67502;SHT30;54349;52.528;19.760;2023-04-23T03:42:10;22.77;35.80
67502;SHT30;54349;52.528;19.760;2023-04-23T03:44:38;22.76;35.79
67502;SHT30;54349;52.528;19.760;2023-04-23T03:47:08;22.74;35.79
67502;SHT30;54349;52.528;19.760;2023-04-23T03:49:36;22.73;35.80
67502;SHT30;54349;52.528;19.760;2023-04-23T03:52:05;22.72;35.81
67502;SHT30;54349;52.528;19.760;2023-04-23T03:54:35;22.70;35.79
67502;SHT30;54349;52.528;19.760;2023-04-23T03:57:19;22.70;35.80
67502;SHT30;54349;52.528;19.760;2023-04-23T04:00:08;22.68;35.80
67502;SHT30;54349;52.528;19.760;2023-04-23T04:02:41;22.67;35.81
67502;SHT30;54349;52.528;19.760;2023-04-23T04:05:09;22.66;35.80
67502;SHT30;54349;52.528;19.760;2023-04-23T04:07:38;22.66;35.81
67502;SHT30;54349;52.528;19.760;2023-04-23T04:10:08;22.65;35.81
67502;SHT30;54349;52.528;19.760;2023-04-23T04:12:37;22.63;35.83
67502;SHT30;54349;52.528;19.760;2023-04-23T04:15:09;22.63;35.82
67502;SHT30;54349;52.528;19.760;2023-04-23T04:17:38;22.62;35.81
67502;SHT30;54349;52.528;19.760;2023-04-23T04:20:07;22.61;35.85
67502;SHT30;54349;52.528;19.760;2023-04-23T04:22:37;22.60;35.83
67502;SHT30;54349;52.528;19.760;2023-04-23T04:25:06;22.59;35.85
67502;SHT30;54349;52.528;19.760;2023-04-23T04:27:35;22.59;35.89
67502;SHT30;54349;52.528;19.760;2023-04-23T04:30:04;22.57;35.89
67502;SHT30;54349;52.528;19.760;2023-04-23T04:32:34;22.56;35.91
67502;SHT30;54349;52.528;19.760;2023-04-23T04:35:05;22.56;35.89
67502;SHT30;54349;52.528;19.760;2023-04-23T04:37:39;22.55;35.89
67502;SHT30;54349;52.528;19.760;2023-04-23T04:40:08;22.54;35.89
67502;SHT30;54349;52.528;19.760;2023-04-23T04:42:38;22.53;35.91
67502;SHT30;54349;52.528;19.760;2023-04-23T04:45:06;22.52;35.95
67502;SHT30;54349;52.528;19.760;2023-04-23T04:47:35;22.51;35.97
67502;SHT30;54349;52.528;19.760;2023-04-23T04:50:04;22.50;35.97
67502;SHT30;54349;52.528;19.760;2023-04-23T04:52:33;22.50;35.96
67502;SHT30;54349;52.528;19.760;2023-04-23T04:55:02;22.50;36.00
67502;SHT30;54349;52.528;19.760;2023-04-23T04:57:33;22.49;36.01
67502;SHT30;54349;52.528;19.760;2023-04-23T05:00:02;22.48;36.01
67502;SHT30;54349;52.528;19.760;2023-04-23T05:02:56;22.48;36.09
67502;SHT30;54349;52.528;19.760;2023-04-23T05:05:26;22.48;36.07
67502;SHT30;54349;52.528;19.760;2023-04-23T05:07:54;22.47;36.08
67502;SHT30;54349;52.528;19.760;2023-04-23T05:10:25;22.47;36.11
67502;SHT30;54349;52.528;19.760;2023-04-23T05:12:54;22.46;36.15
67502;SHT30;54349;52.528;19.760;2023-04-23T05:15:24;22.45;36.18
67502;SHT30;54349;52.528;19.760;2023-04-23T05:17:53;22.45;36.18
67502;SHT30;54349;52.528;19.760;2023-04-23T05:20:21;22.46;36.19
67502;SHT30;54349;52.528;19.760;2023-04-23T05:22:49;22.45;36.24
67502;SHT30;54349;52.528;19.760;2023-04-23T05:25:18;22.45;36.27
67502;SHT30;54349;52.528;19.760;2023-04-23T05:27:46;22.45;36.28
67502;SHT30;54349;52.528;19.760;2023-04-23T05:30:14;22.44;36.29
67502;SHT30;54349;52.528;19.760;2023-04-23T05:32:42;22.43;36.30
67502;SHT30;54349;52.528;19.760;2023-04-23T05:35:10;22.43;36.34
67502;SHT30;54349;52.528;19.760;2023-04-23T05:37:38;22.43;36.60
67502;SHT30;54349;52.528;19.760;2023-04-23T05:40:09;22.43;36.96
67502;SHT30;54349;52.528;19.760;2023-04-23T05:42:37;22.43;37.46
67502;SHT30;54349;52.528;19.760;2023-04-23T05:45:08;22.43;37.68
67502;SHT30;54349;52.528;19.760;2023-04-23T05:47:37;22.43;37.80
67502;SHT30;54349;52.528;19.760;2023-04-23T05:50:06;22.43;38.02
67502;SHT30;54349;52.528;19.760;2023-04-23T05:52:35;22.43;38.19
67502;SHT30;54349;52.528;19.760;2023-04-23T05:55:05;22.44;38.34
67502;SHT30;54349;52.528;19.760;2023-04-23T05:57:36;22.44;38.51
67502;SHT30;54349;52.528;19.760;2023-04-23T06:00:06;22.44;38.51
67502;SHT30;54349;52.528;19.760;2023-04-23T06:02:39;22.44;38.42
67502;SHT30;54349;52.528;19.760;2023-04-23T06:05:09;22.44;38.28
67502;SHT30;54349;52.528;19.760;2023-04-23T06:07:38;22.44;38.15
67502;SHT30;54349;52.528;19.760;2023-04-23T06:10:07;22.43;38.08
67502;SHT30;54349;52.528;19.760;2023-04-23T06:12:36;22.43;37.97
67502;SHT30;54349;52.528;19.760;2023-04-23T06:15:09;22.44;37.91
67502;SHT30;54349;52.528;19.760;2023-04-23T06:17:38;22.42;37.86
67502;SHT30;54349;52.528;19.760;2023-04-23T06:20:07;22.42;37.83
67502;SHT30;54349;52.528;19.760;2023-04-23T06:22:38;22.42;37.81
67502;SHT30;54349;52.528;19.760;2023-04-23T06:25:08;22.42;37.77
67502;SHT30;54349;52.528;19.760;2023-04-23T06:27:36;22.42;37.80
67502;SHT30;54349;52.528;19.760;2023-04-23T06:30:10;22.43;37.78
67502;SHT30;54349;52.528;19.760;2023-04-23T06:32:39;22.42;37.70
67502;SHT30;54349;52.528;19.760;2023-04-23T06:35:08;22.43;37.72
67502;SHT30;54349;52.528;19.760;2023-04-23T06:37:37;22.43;37.70
67502;SHT30;54349;52.528;19.760;2023-04-23T06:40:05;22.42;37.70
67502;SHT30;54349;52.528;19.760;2023-04-23T06:42:35;22.42;37.67
67502;SHT30;54349;52.528;19.760;2023-04-23T06:45:31;22.43;37.68
67502;SHT30;54349;52.528;19.760;2023-04-23T06:47:59;22.42;37.65
67502;SHT30;54349;52.528;19.760;2023-04-23T06:50:28;22.42;37.61
67502;SHT30;54349;52.528;19.760;2023-04-23T06:52:56;22.42;37.64
67502;SHT30;54349;52.528;19.760;2023-04-23T06:55:25;22.42;37.64
67502;SHT30;54349;52.528;19.760;2023-04-23T06:57:54;22.42;37.64
67502;SHT30;54349;52.528;19.760;2023-04-23T07:00:23;22.42;37.63
67502;SHT30;54349;52.528;19.760;2023-04-23T07:02:52;22.42;37.59
67502;SHT30;54349;52.528;19.760;2023-04-23T07:05:21;22.43;37.61
67502;SHT30;54349;52.528;19.760;2023-04-23T07:07:49;22.43;37.61
67502;SHT30;54349;52.528;19.760;2023-04-23T07:10:19;22.42;37.68
67502;SHT30;54349;52.528;19.760;2023-04-23T07:12:48;22.43;37.66
67502;SHT30;54349;52.528;19.760;2023-04-23T07:15:16;22.43;37.70
67502;SHT30;54349;52.528;19.760;2023-04-23T07:17:46;22.43;37.70
67502;SHT30;54349;52.528;19.760;2023-04-23T07:20:14;22.43;37.68
67502;SHT30;54349;52.528;19.760;2023-04-23T07:22:44;22.43;37.71
67502;SHT30;54349;52.528;19.760;2023-04-23T07:25:14;22.43;37.71
67502;SHT30;54349;52.528;19.760;2023-04-23T07:27:42;22.43;37.72
67502;SHT30;54349;52.528;19.760;2023-04-23T07:30:12;22.45;37.77
67502;SHT30;54349;52.528;19.760;2023-04-23T07:32:41;22.45;37.81
67502;SHT30;54349;52.528;19.760;2023-04-23T07:35:10;22.45;37.80
67502;SHT30;54349;52.528;19.760;2023-04-23T07:37:39;22.45;37.86
67502;SHT30;54349;52.528;19.760;2023-04-23T07:40:07;22.46;37.97
67502;SHT30;54349;52.528;19.760;2023-04-23T07:42:37;22.45;38.00
67502;SHT30;54349;52.528;19.760;2023-04-23T07:45:06;22.46;37.99
67502;SHT30;54349;52.528;19.760;2023-04-23T07:47:35;22.47;38.02
67502;SHT30;54349;52.528;19.760;2023-04-23T07:50:03;22.47;38.03
67502;SHT30;54349;52.528;19.760;2023-04-23T07:52:33;22.47;38.09
67502;SHT30;54349;52.528;19.760;2023-04-23T07:55:02;22.48;38.10
67502;SHT30;54349;52.528;19.760;2023-04-23T07:57:32;22.47;38.10
67502;SHT30;54349;52.528;19.760;2023-04-23T08:00:00;22.48;38.07
67502;SHT30;54349;52.528;19.760;2023-04-23T08:02:38;22.48;38.09
67502;SHT30;54349;52.528;19.760;2023-04-23T08:05:07;22.49;38.03
67502;SHT30;54349;52.528;19.760;2023-04-23T08:07:36;22.49;38.02
67502;SHT30;54349;52.528;19.760;2023-04-23T08:10:04;22.49;37.95
67502;SHT30;54349;52.528;19.760;2023-04-23T08:12:34;22.50;38.00
67502;SHT30;54349;52.528;19.760;2023-04-23T08:15:03;22.50;38.02
67502;SHT30;54349;52.528;19.760;2023-04-23T08:17:36;22.51;38.60
67502;SHT30;54349;52.528;19.760;2023-04-23T08:20:05;22.52;38.85
67502;SHT30;54349;52.528;19.760;2023-04-23T08:22:34;22.53;38.93
67502;SHT30;54349;52.528;19.760;2023-04-23T08:25:03;22.53;38.91
67502;SHT30;54349;52.528;19.760;2023-04-23T08:27:32;22.53;38.89
67502;SHT30;54349;52.528;19.760;2023-04-23T08:30:01;22.54;39.10
67502;SHT30;54349;52.528;19.760;2023-04-23T08:32:31;22.55;39.14
67502;SHT30;54349;52.528;19.760;2023-04-23T08:34:59;22.56;39.13
67502;SHT30;54349;52.528;19.760;2023-04-23T08:37:27;22.56;39.30
67502;SHT30;54349;52.528;19.760;2023-04-23T08:39:59;22.58;39.49
67502;SHT30;54349;52.528;19.760;2023-04-23T08:42:35;22.59;39.50
67502;SHT30;54349;52.528;19.760;2023-04-23T08:45:11;22.59;39.69
67502;SHT30;54349;52.528;19.760;2023-04-23T08:47:41;22.61;39.98
67502;SHT30;54349;52.528;19.760;2023-04-23T08:50:10;22.61;40.19
67502;SHT30;54349;52.528;19.760;2023-04-23T08:52:46;22.63;40.28
67502;SHT30;54349;52.528;19.760;2023-04-23T08:55:23;22.64;40.32
67502;SHT30;54349;52.528;19.760;2023-04-23T08:57:52;22.65;40.16
67502;SHT30;54349;52.528;19.760;2023-04-23T09:00:20;22.66;39.97
67502;SHT30;54349;52.528;19.760;2023-04-23T09:02:53;22.67;39.81
67502;SHT30;54349;52.528;19.760;2023-04-23T09:05:22;22.70;39.91
67502;SHT30;54349;52.528;19.760;2023-04-23T09:07:50;22.71;40.09
67502;SHT30;54349;52.528;19.760;2023-04-23T09:10:20;22.72;40.02
67502;SHT30;54349;52.528;19.760;2023-04-23T09:12:49;22.73;39.96
67502;SHT30;54349;52.528;19.760;2023-04-23T09:15:17;22.74;39.96
67502;SHT30;54349;52.528;19.760;2023-04-23T09:17:46;22.75;39.87
67502;SHT30;54349;52.528;19.760;2023-04-23T09:20:14;22.77;39.77
67502;SHT30;54349;52.528;19.760;2023-04-23T09:22:44;22.77;39.79
67502;SHT30;54349;52.528;19.760;2023-04-23T09:25:15;22.79;39.81
67502;SHT30;54349;52.528;19.760;2023-04-23T09:27:49;22.82;40.20
67502;SHT30;54349;52.528;19.760;2023-04-23T09:30:18;22.85;40.44
67502;SHT30;54349;52.528;19.760;2023-04-23T09:32:47;22.89;40.29
67502;SHT30;54349;52.528;19.760;2023-04-23T09:35:16;22.93;40.24
67502;SHT30;54349;52.528;19.760;2023-04-23T09:37:50;22.98;40.27
67502;SHT30;54349;52.528;19.760;2023-04-23T09:40:21;23.02;40.42
67502;SHT30;54349;52.528;19.760;2023-04-23T09:42:51;23.06;40.25
67502;SHT30;54349;52.528;19.760;2023-04-23T09:45:21;23.08;39.94
67502;SHT30;54349;52.528;19.760;2023-04-23T09:47:53;23.11;39.82
67502;SHT30;54349;52.528;19.760;2023-04-23T09:50:34;23.14;39.63
67502;SHT30;54349;52.528;19.760;2023-04-23T09:53:06;23.17;39.57
67502;SHT30;54349;52.528;19.760;2023-04-23T09:55:37;23.20;39.40
67502;SHT30;54349;52.528;19.760;2023-04-23T09:58:13;23.23;39.32
67502;SHT30;54349;52.528;19.760;2023-04-23T10:00:42;23.26;39.14
67502;SHT30;54349;52.528;19.760;2023-04-23T10:03:10;23.28;39.09
67502;SHT30;54349;52.528;19.760;2023-04-23T10:05:39;23.31;38.99
67502;SHT30;54349;52.528;19.760;2023-04-23T10:08:13;23.33;38.88
67502;SHT30;54349;52.528;19.760;2023-04-23T10:10:43;23.36;38.79
67502;SHT30;54349;52.528;19.760;2023-04-23T10:13:33;23.40;38.63
67502;SHT30;54349;52.528;19.760;2023-04-23T10:16:03;23.42;38.54
67502;SHT30;54349;52.528;19.760;2023-04-23T10:18:49;23.46;38.57
67502;SHT30;54349;52.528;19.760;2023-04-23T10:21:24;23.48;38.45
67502;SHT30;54349;52.528;19.760;2023-04-23T10:24:06;23.52;38.37
67502;SHT30;54349;52.528;19.760;2023-04-23T10:26:38;23.55;38.31
67502;SHT30;54349;52.528;19.760;2023-04-23T10:29:12;23.58;38.21
67502;SHT30;54349;52.528;19.760;2023-04-23T10:31:45;23.60;38.19
67502;SHT30;54349;52.528;19.760;2023-04-23T10:34:15;23.64;38.14
67502;SHT30;54349;52.528;19.760;2023-04-23T10:36:45;23.67;38.07
67502;SHT30;54349;52.528;19.760;2023-04-23T10:39:13;23.69;38.00
67502;SHT30;54349;52.528;19.760;2023-04-23T10:41:56;23.73;38.00
67502;SHT30;54349;52.528;19.760;2023-04-23T10:44:36;23.75;37.93
67502;SHT30;54349;52.528;19.760;2023-04-23T10:47:13;23.79;37.87
67502;SHT30;54349;52.528;19.760;2023-04-23T10:49:44;23.82;37.79
67502;SHT30;54349;52.528;19.760;2023-04-23T10:52:13;23.85;37.68
67502;SHT30;54349;52.528;19.760;2023-04-23T10:54:56;23.88;37.62
67502;SHT30;54349;52.528;19.760;2023-04-23T10:57:27;23.93;37.59
67502;SHT30;54349;52.528;19.760;2023-04-23T10:59:55;23.96;37.52
67502;SHT30;54349;52.528;19.760;2023-04-23T11:02:25;23.98;37.42
67502;SHT30;54349;52.528;19.760;2023-04-23T11:05:14;24.02;37.28
67502;SHT30;54349;52.528;19.760;2023-04-23T11:08:02;24.05;37.15
67502;SHT30;54349;52.528;19.760;2023-04-23T11:10:55;24.08;37.19
67502;SHT30;54349;52.528;19.760;2023-04-23T11:13:26;24.11;36.99
67502;SHT30;54349;52.528;19.760;2023-04-23T11:16:15;24.12;36.96
67502;SHT30;54349;52.528;19.760;2023-04-23T11:19:24;24.14;36.89
67502;SHT30;54349;52.528;19.760;2023-04-23T11:27:04;24.23;36.57
67502;SHT30;54349;52.528;19.760;2023-04-23T11:29:35;24.26;36.63
67502;SHT30;54349;52.528;19.760;2023-04-23T11:32:10;24.30;36.56
67502;SHT30;54349;52.528;19.760;2023-04-23T11:34:44;24.32;36.47
67502;SHT30;54349;52.528;19.760;2023-04-23T11:37:15;24.36;36.46
67502;SHT30;54349;52.528;19.760;2023-04-23T11:39:45;24.39;36.51
67502;SHT30;54349;52.528;19.760;2023-04-23T11:42:16;24.42;36.39
67502;SHT30;54349;52.528;19.760;2023-04-23T11:44:47;24.46;36.39
67502;SHT30;54349;52.528;19.760;2023-04-23T11:47:15;24.48;36.60
67502;SHT30;54349;52.528;19.760;2023-04-23T11:49:46;24.49;36.71
67502;SHT30;54349;52.528;19.760;2023-04-23T11:52:15;24.51;36.83
67502;SHT30;54349;52.528;19.760;2023-04-23T11:54:44;24.52;36.83
67502;SHT30;54349;52.528;19.760;2023-04-23T11:57:12;24.53;36.96
67502;SHT30;54349;52.528;19.760;2023-04-23T11:59:41;24.54;36.84
67502;SHT30;54349;52.528;19.760;2023-04-23T12:02:10;24.54;36.71
67502;SHT30;54349;52.528;19.760;2023-04-23T12:04:38;24.56;36.36
67502;SHT30;54349;52.528;19.760;2023-04-23T12:07:08;24.58;36.18
67502;SHT30;54349;52.528;19.760;2023-04-23T12:09:56;24.59;35.87
67502;SHT30;54349;52.528;19.760;2023-04-23T12:12:36;24.61;35.67
67502;SHT30;54349;52.528;19.760;2023-04-23T12:15:04;24.63;35.77
67502;SHT30;54349;52.528;19.760;2023-04-23T12:17:33;24.65;35.81
67502;SHT30;54349;52.528;19.760;2023-04-23T12:20:03;24.65;35.81
67502;SHT30;54349;52.528;19.760;2023-04-23T12:22:36;24.66;35.82
67502;SHT30;54349;52.528;19.760;2023-04-23T12:25:04;24.68;35.70
67502;SHT30;54349;52.528;19.760;2023-04-23T12:27:39;24.70;35.89
67502;SHT30;54349;52.528;19.760;2023-04-23T12:30:09;24.72;35.95
67502;SHT30;54349;52.528;19.760;2023-04-23T12:32:39;24.74;36.09
67502;SHT30;54349;52.528;19.760;2023-04-23T12:35:08;24.77;36.15
67502;SHT30;54349;52.528;19.760;2023-04-23T12:37:37;24.79;36.15
67502;SHT30;54349;52.528;19.760;2023-04-23T12:40:06;24.81;35.98
67502;SHT30;54349;52.528;19.760;2023-04-23T12:42:36;24.83;36.09
67502;SHT30;54349;52.528;19.760;2023-04-23T12:45:06;24.85;36.25
67502;SHT30;54349;52.528;19.760;2023-04-23T12:47:36;24.87;36.39
67502;SHT30;54349;52.528;19.760;2023-04-23T12:50:05;24.93;36.59
67502;SHT30;54349;52.528;19.760;2023-04-23T12:52:34;24.96;36.56
67502;SHT30;54349;52.528;19.760;2023-04-23T12:55:03;25.01;36.20
67502;SHT30;54349;52.528;19.760;2023-04-23T12:57:33;25.04;36.00
67502;SHT30;54349;52.528;19.760;2023-04-23T13:00:01;25.07;35.96
67502;SHT30;54349;52.528;19.760;2023-04-23T13:02:30;25.09;35.86
67502;SHT30;54349;52.528;19.760;2023-04-23T13:04:59;25.12;35.77
67502;SHT30;54349;52.528;19.760;2023-04-23T13:07:28;25.14;35.75
67502;SHT30;54349;52.528;19.760;2023-04-23T13:09:56;25.15;35.68
67502;SHT30;54349;52.528;19.760;2023-04-23T13:12:27;25.16;35.59
67502;SHT30;54349;52.528;19.760;2023-04-23T13:14:55;25.19;35.54
67502;SHT30;54349;52.528;19.760;2023-04-23T13:17:24;25.21;35.32
67502;SHT30;54349;52.528;19.760;2023-04-23T13:19:53;25.23;35.29
67502;SHT30;54349;52.528;19.760;2023-04-23T13:22:22;25.25;35.27
67502;SHT30;54349;52.528;19.760;2023-04-23T13:24:55;25.28;35.26
67502;SHT30;54349;52.528;19.760;2023-04-23T13:27:24;25.30;35.17
67502;SHT30;54349;52.528;19.760;2023-04-23T13:29:55;25.32;35.16
67502;SHT30;54349;52.528;19.760;2023-04-23T13:32:23;25.33;35.01
67502;SHT30;54349;52.528;19.760;2023-04-23T13:34:54;25.36;35.02
67502;SHT30;54349;52.528;19.760;2023-04-23T13:37:22;25.38;35.01
67502;SHT30;54349;52.528;19.760;2023-04-23T13:39:51;25.40;34.99
67502;SHT30;54349;52.528;19.760;2023-04-23T13:42:19;25.42;34.98
67502;SHT30;54349;52.528;19.760;2023-04-23T13:44:47;25.42;34.98
67502;SHT30;54349;52.528;19.760;2023-04-23T13:47:15;25.44;34.97
67502;SHT30;54349;52.528;19.760;2023-04-23T13:49:43;25.46;34.92
67502;SHT30;54349;52.528;19.760;2023-04-23T13:52:11;25.48;34.92
67502;SHT30;54349;52.528;19.760;2023-04-23T13:54:39;25.50;34.84
67502;SHT30;54349;52.528;19.760;2023-04-23T13:57:07;25.51;34.83
67502;SHT30;54349;52.528;19.760;2023-04-23T13:59:36;25.53;34.84
67502;SHT30;54349;52.528;19.760;2023-04-23T14:02:04;25.54;34.87
67502;SHT30;54349;52.528;19.760;2023-04-23T14:04:32;25.56;34.89
67502;SHT30;54349;52.528;19.760;2023-04-23T14:07:01;25.58;34.86
67502;SHT30;54349;52.528;19.760;2023-04-23T14:09:29;25.60;34.83
67502;SHT30;54349;52.528;19.760;2023-04-23T14:11:57;25.60;34.76
67502;SHT30;54349;52.528;19.760;2023-04-23T14:14:25;25.62;34.71
67502;SHT30;54349;52.528;19.760;2023-04-23T14:16:53;25.63;34.64
67502;SHT30;54349;52.528;19.760;2023-04-23T14:19:22;25.64;34.54
67502;SHT30;54349;52.528;19.760;2023-04-23T14:21:50;25.64;34.46
67502;SHT30;54349;52.528;19.760;2023-04-23T14:24:22;25.63;34.36
67502;SHT30;54349;52.528;19.760;2023-04-23T14:26:56;25.62;34.27
67502;SHT30;54349;52.528;19.760;2023-04-23T14:29:34;25.63;34.23
67502;SHT30;54349;52.528;19.760;2023-04-23T14:32:04;25.65;34.24
67502;SHT30;54349;52.528;19.760;2023-04-23T14:34:33;25.65;34.27
67502;SHT30;54349;52.528;19.760;2023-04-23T14:37:04;25.67;34.29
67502;SHT30;54349;52.528;19.760;2023-04-23T14:39:33;25.69;34.30
67502;SHT30;54349;52.528;19.760;2023-04-23T14:42:01;25.70;34.32
67502;SHT30;54349;52.528;19.760;2023-04-23T14:44:30;25.72;34.33
67502;SHT30;54349;52.528;19.760;2023-04-23T14:46:58;25.71;34.37
67502;SHT30;54349;52.528;19.760;2023-04-23T14:49:26;25.71;34.40
67502;SHT30;54349;52.528;19.760;2023-04-23T14:51:54;25.70;34.46
67502;SHT30;54349;52.528;19.760;2023-04-23T14:54:24;25.70;34.52
67502;SHT30;54349;52.528;19.760;2023-04-23T14:56:52;25.68;34.53
67502;SHT30;54349;52.528;19.760;2023-04-23T14:59:20;25.67;34.48
67502;SHT30;54349;52.528;19.760;2023-04-23T15:01:49;25.63;34.47
67502;SHT30;54349;52.528;19.760;2023-04-23T15:04:18;25.60;34.89
67502;SHT30;54349;52.528;19.760;2023-04-23T15:06:46;25.58;34.94
67502;SHT30;54349;52.528;19.760;2023-04-23T15:09:15;25.58;35.02
67502;SHT30;54349;52.528;19.760;2023-04-23T15:11:45;25.57;34.95
67502;SHT30;54349;52.528;19.760;2023-04-23T15:14:23;25.55;35.11
67502;SHT30;54349;52.528;19.760;2023-04-23T15:17:04;25.56;35.16
67502;SHT30;54349;52.528;19.760;2023-04-23T15:19:32;25.55;35.18
67502;SHT30;54349;52.528;19.760;2023-04-23T15:22:00;25.55;35.16
67502;SHT30;54349;52.528;19.760;2023-04-23T15:24:28;25.54;35.11
67502;SHT30;54349;52.528;19.760;2023-04-23T15:26:56;25.55;35.06
67502;SHT30;54349;52.528;19.760;2023-04-23T15:29:26;25.54;35.12
67502;SHT30;54349;52.528;19.760;2023-04-23T15:31:54;25.55;35.19
67502;SHT30;54349;52.528;19.760;2023-04-23T15:34:25;25.55;35.32
67502;SHT30;54349;52.528;19.760;2023-04-23T15:36:53;25.54;35.33
67502;SHT30;54349;52.528;19.760;2023-04-23T15:39:21;25.55;35.37